createdAt,value
2023-01-30T00:00:36.983Z,22.70
2023-01-30T00:03:08.591Z,25.10
2023-01-30T00:05:39.958Z,23.40
2023-01-30T00:08:11.370Z,22.50
2023-01-30T00:10:43.132Z,20.70
2023-01-30T00:13:16.053Z,17.60
2023-01-30T00:15:47.505Z,19.00
2023-01-30T00:18:19.098Z,23.80
2023-01-30T00:20:50.704Z,18.10
2023-01-30T00:23:22.157Z,22.80
2023-01-30T00:25:53.581Z,20.60
2023-01-30T00:28:25.514Z,17.80
2023-01-30T00:30:58.111Z,20.70
2023-01-30T00:33:30.486Z,17.90
2023-01-30T00:36:04.587Z,18.70
2023-01-30T00:38:36.073Z,20.60
2023-01-30T00:41:07.829Z,19.10
2023-01-30T00:43:56.894Z,18.90
2023-01-30T00:46:49.940Z,16.00
2023-01-30T00:49:21.633Z,16.40
2023-01-30T00:51:53.110Z,18.90
2023-01-30T00:54:24.930Z,18.10
2023-01-30T00:56:56.453Z,22.20
2023-01-30T00:59:27.899Z,19.50
2023-01-30T01:01:59.475Z,24.50
2023-01-30T01:04:31.157Z,23.70
2023-01-30T01:07:02.616Z,24.60
2023-01-30T01:09:33.945Z,21.40
2023-01-30T01:12:06.033Z,25.30
2023-01-30T01:14:37.453Z,23.70
2023-01-30T01:17:09.245Z,25.80
2023-01-30T01:19:40.696Z,24.10
2023-01-30T01:22:12.223Z,25.00
2023-01-30T01:24:43.615Z,22.20
2023-01-30T01:27:15.022Z,28.20
2023-01-30T01:29:46.443Z,22.80
2023-01-30T01:32:18.034Z,25.50
2023-01-30T01:34:49.492Z,22.90
2023-01-30T01:37:20.960Z,24.60
2023-01-30T01:40:09.980Z,22.60
2023-01-30T01:42:42.269Z,22.70
2023-01-30T01:45:21.619Z,23.00
2023-01-30T01:48:04.262Z,23.70
2023-01-30T01:50:43.974Z,23.80
2023-01-30T01:53:19.190Z,20.30
2023-01-30T01:55:54.009Z,22.60
2023-01-30T01:58:31.229Z,20.90
2023-01-30T02:01:03.467Z,22.40
2023-01-30T02:03:39.283Z,23.00
2023-01-30T02:06:12.583Z,20.80
2023-01-30T02:08:48.143Z,26.10
2023-01-30T02:14:42.130Z,20.10
2023-01-30T02:17:13.876Z,22.50
2023-01-30T02:19:53.268Z,22.90
2023-01-30T02:22:57.320Z,24.90
2023-01-30T02:26:01.527Z,23.90
2023-01-30T02:28:59.465Z,23.20
2023-01-30T02:31:40.612Z,23.60
2023-01-30T02:34:32.683Z,22.80
2023-01-30T02:37:16.433Z,24.00
2023-01-30T02:40:01.516Z,22.90
2023-01-30T02:42:39.348Z,25.50
2023-01-30T02:45:20.712Z,25.30
2023-01-30T02:47:57.696Z,28.30
2023-01-30T02:50:32.513Z,28.30
2023-01-30T02:55:34.598Z,27.40
2023-01-30T02:58:07.199Z,28.40
2023-01-30T03:01:04.477Z,24.90
2023-01-30T03:03:53.960Z,27.80
2023-01-30T03:06:44.239Z,24.50
2023-01-30T03:09:31.682Z,30.40
2023-01-30T03:12:11.219Z,24.30
2023-01-30T03:14:49.337Z,27.20
2023-01-30T03:17:25.079Z,27.70
2023-01-30T03:19:57.900Z,26.10
2023-01-30T03:22:29.666Z,23.20
2023-01-30T03:25:01.325Z,26.70
2023-01-30T03:27:35.215Z,26.20
2023-01-30T03:30:08.258Z,20.50
2023-01-30T03:32:39.783Z,24.70
2023-01-30T03:35:12.381Z,24.70
2023-01-30T03:37:43.930Z,21.80
2023-01-30T03:40:18.741Z,22.90
2023-01-30T03:45:20.320Z,21.10
2023-01-30T03:47:52.248Z,23.80
2023-01-30T03:50:23.862Z,20.30
2023-01-30T03:52:55.699Z,19.60
2023-01-30T03:55:27.381Z,18.80
2023-01-30T03:58:00.155Z,20.20
2023-01-30T04:00:31.945Z,20.40
2023-01-30T04:03:03.596Z,18.10
2023-01-30T04:05:35.237Z,17.70
2023-01-30T04:08:07.081Z,17.90
2023-01-30T04:10:38.656Z,18.30
2023-01-30T04:13:10.564Z,18.40
2023-01-30T04:15:42.195Z,16.40
2023-01-30T04:18:13.927Z,19.70
2023-01-30T04:20:45.476Z,19.10
2023-01-30T04:23:17.032Z,17.40
2023-01-30T04:25:50.944Z,16.00
2023-01-30T04:28:22.547Z,17.20
2023-01-30T04:30:55.858Z,14.50
2023-01-30T04:33:27.453Z,16.00
2023-01-30T04:36:06.839Z,19.70
2023-01-30T04:38:44.675Z,15.90
2023-01-30T04:41:22.779Z,16.70
2023-01-30T04:44:03.114Z,19.10
2023-01-30T04:46:34.637Z,17.00
2023-01-30T04:49:06.326Z,16.40
2023-01-30T04:51:39.483Z,18.20
2023-01-30T04:54:11.105Z,15.00
2023-01-30T04:56:42.677Z,17.70
2023-01-30T04:59:16.270Z,18.00
2023-01-30T05:01:47.966Z,21.90
2023-01-30T05:04:19.591Z,20.90
2023-01-30T05:06:51.470Z,18.80
2023-01-30T05:09:22.996Z,19.00
2023-01-30T05:11:54.490Z,16.60
2023-01-30T05:14:26.102Z,15.20
2023-01-30T05:16:57.682Z,17.60
2023-01-30T05:19:30.036Z,18.10
2023-01-30T05:22:01.798Z,18.10
2023-01-30T05:24:33.397Z,18.80
2023-01-30T05:27:06.682Z,19.90
2023-01-30T05:29:38.281Z,20.40
2023-01-30T05:32:12.531Z,19.20
2023-01-30T05:34:44.217Z,18.60
2023-01-30T05:37:16.130Z,18.00
2023-01-30T05:39:47.864Z,19.00
2023-01-30T05:42:19.414Z,20.50
2023-01-30T05:44:50.987Z,21.10
2023-01-30T05:47:22.684Z,19.80
2023-01-30T05:49:55.648Z,15.90
2023-01-30T05:52:27.262Z,17.30
2023-01-30T05:54:58.943Z,19.30
2023-01-30T05:57:30.531Z,21.30
2023-01-30T06:00:02.135Z,17.80
2023-01-30T06:02:33.778Z,16.90
2023-01-30T06:05:05.492Z,20.30
2023-01-30T06:07:37.121Z,20.90
2023-01-30T06:10:10.115Z,16.40
2023-01-30T06:12:41.730Z,17.80
2023-01-30T06:15:15.224Z,18.10
2023-01-30T06:17:47.510Z,19.40
2023-01-30T06:20:19.521Z,21.20
2023-01-30T06:22:51.203Z,20.40
2023-01-30T06:25:22.766Z,21.50
2023-01-30T06:27:54.337Z,20.90
2023-01-30T06:30:26.072Z,23.70
2023-01-30T06:32:57.674Z,20.60
2023-01-30T06:35:29.645Z,25.10
2023-01-30T06:38:01.512Z,19.20
2023-01-30T06:40:33.580Z,23.10
2023-01-30T06:43:05.958Z,27.30
2023-01-30T06:45:37.524Z,21.00
2023-01-30T06:48:10.301Z,26.10
2023-01-30T06:50:41.921Z,18.60
2023-01-30T06:53:14.515Z,23.40
2023-01-30T06:55:46.113Z,20.70
2023-01-30T06:58:18.242Z,21.40
2023-01-30T07:00:49.962Z,20.80
2023-01-30T07:03:21.928Z,21.50
2023-01-30T07:05:53.498Z,24.00
2023-01-30T07:08:25.295Z,24.00
2023-01-30T07:10:58.701Z,21.10
2023-01-30T07:13:30.235Z,22.00
2023-01-30T07:16:01.928Z,19.30
2023-01-30T07:18:34.299Z,18.40
2023-01-30T07:21:06.089Z,20.90
2023-01-30T07:23:37.826Z,25.20
2023-01-30T07:26:10.054Z,19.30
2023-01-30T07:28:41.779Z,21.00
2023-01-30T07:31:13.713Z,22.70
2023-01-30T07:33:45.394Z,24.80
2023-01-30T07:36:17.276Z,24.00
2023-01-30T07:38:51.532Z,24.70
2023-01-30T07:41:23.178Z,25.90
2023-01-30T07:43:55.013Z,28.00
2023-01-30T07:46:26.750Z,30.10
2023-01-30T07:48:59.880Z,32.60
2023-01-30T07:51:32.723Z,30.20
2023-01-30T07:54:04.448Z,26.70
2023-01-30T07:56:36.515Z,26.50
2023-01-30T07:59:08.112Z,30.10
2023-01-30T08:01:40.072Z,29.50
2023-01-30T08:04:11.862Z,29.40
2023-01-30T08:06:43.677Z,28.50
2023-01-30T08:09:15.482Z,31.70
2023-01-30T08:11:47.085Z,30.50
2023-01-30T08:14:19.113Z,30.10
2023-01-30T08:16:52.711Z,26.20
2023-01-30T08:19:24.445Z,30.40
2023-01-30T08:21:57.651Z,28.70
2023-01-30T08:24:29.482Z,25.10
2023-01-30T08:27:01.117Z,29.70
2023-01-30T08:29:33.192Z,32.20
2023-01-30T08:32:05.328Z,28.50
2023-01-30T08:34:37.716Z,32.50
2023-01-30T08:37:09.383Z,30.40
2023-01-30T08:39:41.107Z,29.30
2023-01-30T08:42:12.771Z,30.70
2023-01-30T08:44:44.648Z,27.00
2023-01-30T08:47:16.346Z,28.80
2023-01-30T08:49:48.061Z,31.10
2023-01-30T08:52:19.713Z,31.10
2023-01-30T08:54:51.520Z,31.00
2023-01-30T08:57:23.224Z,33.50
2023-01-30T08:59:55.207Z,31.10
2023-01-30T09:02:27.191Z,32.70
2023-01-30T09:04:58.922Z,31.90
2023-01-30T09:07:30.564Z,34.20
2023-01-30T09:10:02.642Z,33.80
2023-01-30T09:12:34.624Z,37.50
2023-01-30T09:15:07.317Z,34.40
2023-01-30T09:17:39.603Z,34.00
2023-01-30T09:20:14.661Z,35.90
2023-01-30T09:22:46.360Z,38.80
2023-01-30T09:25:18.578Z,33.00
2023-01-30T09:27:52.795Z,34.80
2023-01-30T09:30:24.810Z,32.70
2023-01-30T09:32:56.516Z,31.50
2023-01-30T09:35:28.869Z,30.40
2023-01-30T09:38:01.828Z,28.90
2023-01-30T09:40:40.154Z,28.30
2023-01-30T09:43:22.777Z,25.00
2023-01-30T09:46:26.091Z,27.80
2023-01-30T09:49:08.030Z,28.70
2023-01-30T09:51:57.682Z,28.70
2023-01-30T09:54:33.877Z,26.80
2023-01-30T09:57:22.205Z,27.40
2023-01-30T10:00:04.530Z,23.70
2023-01-30T10:02:49.161Z,28.00
2023-01-30T10:05:21.457Z,26.70
2023-01-30T10:08:13.586Z,24.20
2023-01-30T10:11:04.326Z,23.00
2023-01-30T10:16:37.915Z,24.70
2023-01-30T10:19:36.256Z,28.40
2023-01-30T10:22:18.758Z,33.20
2023-01-30T10:25:01.104Z,29.30
2023-01-30T10:27:33.759Z,31.40
2023-01-30T10:30:09.867Z,29.20
2023-01-30T10:32:48.667Z,27.40
2023-01-30T10:35:26.184Z,28.90
2023-01-30T10:38:06.487Z,26.00
2023-01-30T10:40:44.238Z,25.90
2023-01-30T10:43:22.551Z,24.50
2023-01-30T10:46:03.288Z,22.80
2023-01-30T10:48:54.978Z,25.10
2023-01-30T10:51:46.469Z,24.00
2023-01-30T10:54:25.158Z,25.80
2023-01-30T10:57:05.524Z,28.80
2023-01-30T10:59:51.469Z,23.20
2023-01-30T11:02:37.867Z,23.90
2023-01-30T11:05:17.803Z,29.20
2023-01-30T11:07:51.189Z,30.00
2023-01-30T11:10:25.200Z,28.30
2023-01-30T11:13:00.613Z,26.00
2023-01-30T11:15:46.258Z,23.70
2023-01-30T11:21:20.286Z,24.60
2023-01-30T11:23:52.698Z,28.30
2023-01-30T11:26:34.725Z,24.60
2023-01-30T11:29:30.887Z,26.30
2023-01-30T11:32:06.136Z,24.20
2023-01-30T11:34:38.356Z,26.10
2023-01-30T11:37:29.262Z,29.70
2023-01-30T11:40:09.466Z,26.40
2023-01-30T11:42:47.965Z,28.20
2023-01-30T11:45:21.674Z,26.60
2023-01-30T11:48:02.190Z,21.20
2023-01-30T11:50:41.636Z,25.70
2023-01-30T11:53:41.736Z,24.70
2023-01-30T11:56:23.139Z,23.90
2023-01-30T11:59:00.204Z,22.50
2023-01-30T12:01:34.581Z,26.00
2023-01-30T12:04:10.843Z,29.50
2023-01-30T12:06:45.463Z,23.30
2023-01-30T12:09:42.629Z,25.00
2023-01-30T12:12:32.101Z,23.10
2023-01-30T12:15:24.590Z,20.20
2023-01-30T12:18:06.400Z,21.30
2023-01-30T12:20:48.153Z,20.30
2023-01-30T12:23:29.095Z,23.60
2023-01-30T12:26:07.160Z,28.00
2023-01-30T12:28:48.545Z,23.00
2023-01-30T12:31:27.903Z,22.50
2023-01-30T12:33:59.532Z,21.60
2023-01-30T12:36:43.133Z,24.60
2023-01-30T12:39:37.027Z,24.80
2023-01-30T12:42:26.073Z,23.50
2023-01-30T12:45:16.065Z,22.70
2023-01-30T12:48:10.257Z,24.30
2023-01-30T12:50:57.200Z,22.00
2023-01-30T12:53:42.785Z,22.60
2023-01-30T12:56:50.203Z,25.40
2023-01-30T12:59:28.070Z,21.80
2023-01-30T13:02:20.945Z,25.10
2023-01-30T13:05:06.772Z,25.30
2023-01-30T13:07:47.255Z,22.20
2023-01-30T13:10:30.171Z,20.00
2023-01-30T13:13:13.446Z,19.90
2023-01-30T13:15:53.326Z,20.40
2023-01-30T13:18:33.858Z,16.30
2023-01-30T13:21:13.064Z,20.40
2023-01-30T13:23:58.958Z,22.20
2023-01-30T13:26:35.773Z,19.20
2023-01-30T13:29:14.077Z,19.50
2023-01-30T13:31:52.139Z,19.80
2023-01-30T13:34:33.134Z,18.80
2023-01-30T13:37:09.163Z,18.10
2023-01-30T13:39:46.400Z,23.00
2023-01-30T13:42:27.278Z,20.30
2023-01-30T13:45:00.235Z,19.00
2023-01-30T13:47:45.143Z,22.40
2023-01-30T13:50:34.974Z,26.40
2023-01-30T13:53:12.944Z,20.90
2023-01-30T13:55:53.613Z,25.40
2023-01-30T13:58:44.453Z,21.20
2023-01-30T14:01:16.825Z,22.00
2023-01-30T14:03:48.504Z,22.70
2023-01-30T14:06:40.951Z,19.30
2023-01-30T14:09:33.496Z,21.50
2023-01-30T14:12:07.366Z,17.40
2023-01-30T14:14:41.715Z,18.10
2023-01-30T14:17:19.180Z,22.20
2023-01-30T14:19:59.826Z,22.20
2023-01-30T14:22:38.643Z,21.80
2023-01-30T14:25:46.707Z,26.10
2023-01-30T14:28:55.849Z,33.00
2023-01-30T14:31:56.947Z,28.00
2023-01-30T14:35:14.315Z,29.90
2023-01-30T14:38:11.589Z,26.00
2023-01-30T14:41:07.136Z,30.40
2023-01-30T14:46:37.531Z,28.30
2023-01-30T14:49:32.937Z,28.30
2023-01-30T14:52:06.728Z,29.90
2023-01-30T14:54:52.716Z,28.20
2023-01-30T14:57:33.045Z,25.40
2023-01-30T15:00:18.546Z,28.90
2023-01-30T15:02:58.973Z,27.50
2023-01-30T15:05:35.686Z,28.10
2023-01-30T15:08:13.533Z,30.00
2023-01-30T15:11:10.291Z,28.90
2023-01-30T15:13:59.452Z,28.00
2023-01-30T15:17:03.347Z,26.50
2023-01-30T15:20:02.101Z,27.40
2023-01-30T15:22:45.029Z,21.60
2023-01-30T15:25:37.553Z,25.40
2023-01-30T15:28:22.376Z,21.40
2023-01-30T15:31:05.940Z,25.80
2023-01-30T15:33:47.125Z,25.00
2023-01-30T15:36:29.479Z,27.20
2023-01-30T15:39:04.199Z,30.80
2023-01-30T15:41:43.129Z,26.60
2023-01-30T15:44:41.187Z,27.80
2023-01-30T15:47:33.374Z,23.40
2023-01-30T15:50:08.562Z,23.40
2023-01-30T15:52:46.769Z,25.10
2023-01-30T15:55:26.305Z,25.80
2023-01-30T15:58:02.331Z,30.20
2023-01-30T16:00:37.322Z,24.40
2023-01-30T16:03:16.168Z,28.20
2023-01-30T16:05:52.906Z,32.20
2023-01-30T16:08:27.317Z,43.10
2023-01-30T16:11:01.021Z,28.20
2023-01-30T16:13:35.699Z,27.80
2023-01-30T16:16:13.821Z,29.20
2023-01-30T16:18:51.651Z,29.00
2023-01-30T16:21:26.891Z,27.60
2023-01-30T16:24:03.502Z,29.00
2023-01-30T16:26:37.001Z,30.00
2023-01-30T16:29:15.708Z,27.50
2023-01-30T16:31:52.008Z,30.80
2023-01-30T16:34:32.411Z,26.70
2023-01-30T16:37:08.341Z,25.20
2023-01-30T16:39:41.734Z,26.60
2023-01-30T16:42:27.077Z,27.90
2023-01-30T16:45:22.608Z,30.50
2023-01-30T16:47:54.285Z,26.30
2023-01-30T16:50:29.325Z,28.10
2023-01-30T16:53:03.093Z,25.40
2023-01-30T16:55:36.120Z,22.70
2023-01-30T16:58:08.120Z,24.00
2023-01-30T17:00:43.317Z,25.60
2023-01-30T17:03:27.161Z,26.60
2023-01-30T17:06:02.700Z,25.80
2023-01-30T17:08:52.862Z,23.20
2023-01-30T17:11:37.831Z,25.10
2023-01-30T17:14:26.688Z,25.70
2023-01-30T17:17:07.973Z,27.40
2023-01-30T17:19:40.279Z,23.30
2023-01-30T17:22:24.768Z,29.40
2023-01-30T17:25:00.547Z,24.10
2023-01-30T17:27:37.761Z,23.70
2023-01-30T17:30:18.189Z,29.60
2023-01-30T17:32:51.464Z,23.30
2023-01-30T17:35:24.007Z,23.60
2023-01-30T17:38:04.760Z,25.80
2023-01-30T17:40:40.448Z,22.50
2023-01-30T17:43:16.159Z,24.20
2023-01-30T17:45:48.844Z,27.50
2023-01-30T17:48:24.807Z,24.50
2023-01-30T17:50:56.975Z,27.20
2023-01-30T17:53:30.180Z,27.00
2023-01-30T17:56:03.419Z,23.30
2023-01-30T17:58:37.069Z,27.00
2023-01-30T18:01:10.339Z,29.50
2023-01-30T18:03:45.073Z,28.50
2023-01-30T18:06:20.472Z,29.70
2023-01-30T18:08:54.272Z,28.00
2023-01-30T18:11:27.562Z,26.00
2023-01-30T18:14:02.110Z,18.90
2023-01-30T18:16:36.352Z,23.50
2023-01-30T18:19:14.287Z,20.80
2023-01-30T18:21:48.070Z,21.70
2023-01-30T18:24:21.309Z,19.50
2023-01-30T18:26:58.442Z,22.30
2023-01-30T18:29:36.710Z,21.20
2023-01-30T18:32:11.317Z,19.60
2023-01-30T18:34:44.876Z,19.40
2023-01-30T18:37:18.023Z,19.60
2023-01-30T18:39:51.301Z,17.70
2023-01-30T18:42:24.824Z,21.70
2023-01-30T18:44:58.917Z,24.90
2023-01-30T18:47:34.575Z,19.90
2023-01-30T18:50:21.308Z,19.40
2023-01-30T18:52:55.072Z,24.80
2023-01-30T18:55:31.169Z,23.70
2023-01-30T18:58:05.327Z,26.70
2023-01-30T19:00:39.431Z,22.50
2023-01-30T19:03:17.104Z,25.10
2023-01-30T19:05:51.800Z,28.30
2023-01-30T19:08:30.641Z,26.10
2023-01-30T19:11:24.149Z,20.60
2023-01-30T19:13:58.539Z,25.70
2023-01-30T19:16:41.189Z,27.60
2023-01-30T19:19:15.499Z,28.40
2023-01-30T19:21:52.538Z,30.00
2023-01-30T19:24:28.210Z,32.90
2023-01-30T19:27:08.236Z,24.40
2023-01-30T19:29:44.329Z,21.50
2023-01-30T19:32:19.647Z,22.60
2023-01-30T19:35:05.055Z,24.10
2023-01-30T19:37:39.383Z,23.50
2023-01-30T19:40:24.086Z,23.40
2023-01-30T19:43:05.717Z,24.30
2023-01-30T19:45:45.187Z,25.20
2023-01-30T19:48:18.875Z,25.90
2023-01-30T19:50:52.703Z,25.60
2023-01-30T19:53:27.732Z,24.50
2023-01-30T19:56:01.818Z,26.00
2023-01-30T19:58:37.373Z,28.20
2023-01-30T20:01:21.234Z,25.90
2023-01-30T20:03:55.469Z,29.20
2023-01-30T20:06:36.765Z,25.20
2023-01-30T20:09:14.582Z,25.70
2023-01-30T20:11:51.687Z,27.30
2023-01-30T20:14:25.313Z,23.70
2023-01-30T20:16:58.528Z,23.10
2023-01-30T20:19:33.035Z,23.90
2023-01-30T20:22:09.298Z,26.70
2023-01-30T20:24:49.179Z,26.60
2023-01-30T20:27:22.963Z,26.70
2023-01-30T20:29:57.962Z,26.10
2023-01-30T20:32:34.589Z,25.10
2023-01-30T20:35:09.619Z,23.40
2023-01-30T20:37:45.206Z,21.70
2023-01-30T20:40:20.357Z,18.10
2023-01-30T20:42:53.685Z,27.10
2023-01-30T20:45:29.830Z,23.70
2023-01-30T20:48:04.336Z,22.20
2023-01-30T20:50:38.589Z,22.60
2023-01-30T20:53:13.390Z,28.90
2023-01-30T20:58:19.496Z,23.70
2023-01-30T21:00:53.224Z,18.30
2023-01-30T21:03:28.486Z,20.80
2023-01-30T21:06:03.514Z,19.70
2023-01-30T21:08:39.491Z,20.60
2023-01-30T21:11:15.302Z,23.80
2023-01-30T21:13:48.410Z,23.10
2023-01-30T21:16:24.390Z,21.10
2023-01-30T21:19:00.167Z,21.40
2023-01-30T21:21:38.968Z,16.80
2023-01-30T21:24:15.838Z,16.50
2023-01-30T21:26:49.092Z,19.20
2023-01-30T21:29:24.421Z,20.50
2023-01-30T21:31:57.303Z,15.80
2023-01-30T21:34:30.900Z,15.20
2023-01-30T21:37:20.037Z,13.70
2023-01-30T21:40:09.232Z,16.00
2023-01-30T21:42:58.937Z,16.90
2023-01-30T21:45:31.095Z,17.40
2023-01-30T21:48:02.708Z,13.80
2023-01-30T21:50:34.757Z,13.10
2023-01-30T21:53:06.557Z,17.30
2023-01-30T21:55:38.139Z,15.20
2023-01-30T21:58:09.739Z,12.40
2023-01-30T22:00:41.464Z,14.90
2023-01-30T22:03:13.151Z,20.60
2023-01-30T22:05:48.016Z,14.90
2023-01-30T22:10:49.474Z,14.40
2023-01-30T22:13:21.107Z,18.00
2023-01-30T22:15:53.358Z,13.40
2023-01-30T22:18:25.071Z,16.60
2023-01-30T22:21:01.780Z,18.90
2023-01-30T22:23:37.362Z,20.30
2023-01-30T22:26:10.024Z,22.10
2023-01-30T22:28:41.985Z,20.30
2023-01-30T22:31:15.334Z,18.70
2023-01-30T22:33:49.706Z,18.10
2023-01-30T22:36:22.514Z,14.40
2023-01-30T22:38:54.521Z,19.30
2023-01-30T22:41:27.682Z,14.00
2023-01-30T22:44:00.788Z,17.20
2023-01-30T22:46:34.133Z,12.70
2023-01-30T22:49:07.154Z,10.90
2023-01-30T22:51:41.344Z,15.40
2023-01-30T22:54:16.291Z,14.70
2023-01-30T22:56:49.982Z,16.30
2023-01-30T22:59:22.103Z,14.70
2023-01-30T23:01:54.010Z,11.30
2023-01-30T23:04:26.780Z,11.40
2023-01-30T23:06:59.899Z,13.90
2023-01-30T23:09:31.552Z,12.20
2023-01-30T23:12:20.282Z,13.70
2023-01-30T23:14:52.617Z,13.20
2023-01-30T23:17:42.902Z,14.50
2023-01-30T23:20:16.266Z,16.60
2023-01-30T23:22:51.471Z,17.90
2023-01-30T23:25:23.803Z,15.70
2023-01-30T23:27:55.481Z,13.10
2023-01-30T23:30:27.209Z,13.30
2023-01-30T23:32:59.292Z,18.40
2023-01-30T23:35:31.269Z,16.90
2023-01-30T23:38:19.367Z,13.10
2023-01-30T23:40:52.335Z,15.00
2023-01-30T23:43:23.991Z,14.80
2023-01-30T23:45:56.186Z,14.00
2023-01-30T23:48:28.335Z,12.90
2023-01-30T23:51:03.150Z,11.20
2023-01-30T23:56:05.675Z,15.80
2023-01-30T23:58:38.751Z,14.10
